sensor_id;sensor_type;location;lat;lon;timestamp;temperature;humidity
66013;DHT22;52783;50.502;8.190;2024-02-21T00:00:54;7.50;99.90
66013;DHT22;52783;50.502;8.190;2024-02-21T00:03:20;7.40;99.90
66013;DHT22;52783;50.502;8.190;2024-02-21T00:05:45;7.40;99.90
66013;DHT22;52783;50.502;8.190;2024-02-21T00:08:11;7.40;99.90
66013;DHT22;52783;50.502;8.190;2024-02-21T00:10:36;7.40;99.90
66013;DHT22;52783;50.502;8.190;2024-02-21T00:13:02;7.40;99.90
66013;DHT22;52783;50.502;8.190;2024-02-21T00:15:27;7.40;99.90
66013;DHT22;52783;50.502;8.190;2024-02-21T00:17:53;7.30;99.90
66013;DHT22;52783;50.502;8.190;2024-02-21T00:20:19;7.40;99.90
66013;DHT22;52783;50.502;8.190;2024-02-21T00:22:45;7.40;99.90
66013;DHT22;52783;50.502;8.190;2024-02-21T00:25:10;7.40;99.90
66013;DHT22;52783;50.502;8.190;2024-02-21T00:27:36;7.40;99.90
66013;DHT22;52783;50.502;8.190;2024-02-21T00:30:02;7.40;99.90
66013;DHT22;52783;50.502;8.190;2024-02-21T00:32:28;7.40;99.90
66013;DHT22;52783;50.502;8.190;2024-02-21T00:34:54;7.40;99.90
66013;DHT22;52783;50.502;8.190;2024-02-21T00:37:19;7.40;99.90
66013;DHT22;52783;50.502;8.190;2024-02-21T00:39:45;7.40;99.90
66013;DHT22;52783;50.502;8.190;2024-02-21T00:42:10;7.40;99.90
66013;DHT22;52783;50.502;8.190;2024-02-21T00:44:36;7.40;99.90
66013;DHT22;52783;50.502;8.190;2024-02-21T00:47:01;7.40;99.90
66013;DHT22;52783;50.502;8.190;2024-02-21T00:49:27;7.40;99.90
66013;DHT22;52783;50.502;8.190;2024-02-21T00:51:52;7.40;99.90
66013;DHT22;52783;50.502;8.190;2024-02-21T00:54:18;7.40;99.90
66013;DHT22;52783;50.502;8.190;2024-02-21T00:56:43;7.40;99.90
66013;DHT22;52783;50.502;8.190;2024-02-21T00:59:09;7.40;99.90
66013;DHT22;52783;50.502;8.190;2024-02-21T01:01:34;7.40;99.90
66013;DHT22;52783;50.502;8.190;2024-02-21T01:04:00;7.40;99.90
66013;DHT22;52783;50.502;8.190;2024-02-21T01:06:25;7.40;99.90
66013;DHT22;52783;50.502;8.190;2024-02-21T01:08:51;7.40;99.90
66013;DHT22;52783;50.502;8.190;2024-02-21T01:11:17;7.40;99.90
66013;DHT22;52783;50.502;8.190;2024-02-21T01:13:43;7.40;99.90
66013;DHT22;52783;50.502;8.190;2024-02-21T01:16:09;7.40;99.90
66013;DHT22;52783;50.502;8.190;2024-02-21T01:18:36;7.40;99.90
66013;DHT22;52783;50.502;8.190;2024-02-21T01:21:02;7.40;99.90
66013;DHT22;52783;50.502;8.190;2024-02-21T01:23:35;7.40;99.90
66013;DHT22;52783;50.502;8.190;2024-02-21T01:26:01;7.40;99.90
66013;DHT22;52783;50.502;8.190;2024-02-21T01:28:27;7.40;99.90
66013;DHT22;52783;50.502;8.190;2024-02-21T01:30:52;7.40;99.90
66013;DHT22;52783;50.502;8.190;2024-02-21T01:33:18;7.40;99.90
66013;DHT22;52783;50.502;8.190;2024-02-21T01:35:44;7.40;99.90
66013;DHT22;52783;50.502;8.190;2024-02-21T01:38:09;7.40;99.90
66013;DHT22;52783;50.502;8.190;2024-02-21T01:40:36;7.40;99.90
66013;DHT22;52783;50.502;8.190;2024-02-21T01:43:02;7.40;99.90
66013;DHT22;52783;50.502;8.190;2024-02-21T01:45:28;7.40;99.90
66013;DHT22;52783;50.502;8.190;2024-02-21T01:47:54;7.40;99.90
66013;DHT22;52783;50.502;8.190;2024-02-21T01:50:19;7.40;99.90
66013;DHT22;52783;50.502;8.190;2024-02-21T01:52:48;7.40;99.90
66013;DHT22;52783;50.502;8.190;2024-02-21T01:55:16;7.40;99.90
66013;DHT22;52783;50.502;8.190;2024-02-21T01:57:42;7.40;99.90
66013;DHT22;52783;50.502;8.190;2024-02-21T02:00:11;7.40;99.90
66013;DHT22;52783;50.502;8.190;2024-02-21T02:02:38;7.30;99.90
66013;DHT22;52783;50.502;8.190;2024-02-21T02:05:04;7.30;99.90
66013;DHT22;52783;50.502;8.190;2024-02-21T02:07:31;7.30;99.90
66013;DHT22;52783;50.502;8.190;2024-02-21T02:09:57;7.30;99.90
66013;DHT22;52783;50.502;8.190;2024-02-21T02:12:22;7.30;99.90
66013;DHT22;52783;50.502;8.190;2024-02-21T02:14:58;7.30;99.90
66013;DHT22;52783;50.502;8.190;2024-02-21T02:17:24;7.30;99.90
66013;DHT22;52783;50.502;8.190;2024-02-21T02:19:49;7.30;99.90
66013;DHT22;52783;50.502;8.190;2024-02-21T02:22:21;7.30;99.90
66013;DHT22;52783;50.502;8.190;2024-02-21T02:24:47;7.30;99.90
66013;DHT22;52783;50.502;8.190;2024-02-21T02:27:13;7.30;99.90
66013;DHT22;52783;50.502;8.190;2024-02-21T02:29:38;7.40;99.90
66013;DHT22;52783;50.502;8.190;2024-02-21T02:32:04;7.40;99.90
66013;DHT22;52783;50.502;8.190;2024-02-21T02:34:30;7.40;99.90
66013;DHT22;52783;50.502;8.190;2024-02-21T02:36:56;7.30;99.90
66013;DHT22;52783;50.502;8.190;2024-02-21T02:39:21;7.30;99.90
66013;DHT22;52783;50.502;8.190;2024-02-21T02:41:47;7.30;99.90
66013;DHT22;52783;50.502;8.190;2024-02-21T02:44:12;7.30;99.90
66013;DHT22;52783;50.502;8.190;2024-02-21T02:46:40;7.30;99.90
66013;DHT22;52783;50.502;8.190;2024-02-21T02:49:06;7.30;99.90
66013;DHT22;52783;50.502;8.190;2024-02-21T02:51:32;7.30;99.90
66013;DHT22;52783;50.502;8.190;2024-02-21T02:53:57;7.30;99.90
66013;DHT22;52783;50.502;8.190;2024-02-21T02:56:23;7.30;99.90
66013;DHT22;52783;50.502;8.190;2024-02-21T02:58:48;7.30;99.90
66013;DHT22;52783;50.502;8.190;2024-02-21T03:01:14;7.30;99.90
66013;DHT22;52783;50.502;8.190;2024-02-21T03:03:40;7.30;99.90
66013;DHT22;52783;50.502;8.190;2024-02-21T03:06:05;7.30;99.90
66013;DHT22;52783;50.502;8.190;2024-02-21T03:08:31;7.20;99.90
66013;DHT22;52783;50.502;8.190;2024-02-21T03:10:58;7.30;99.90
66013;DHT22;52783;50.502;8.190;2024-02-21T03:13:25;7.20;99.90
66013;DHT22;52783;50.502;8.190;2024-02-21T03:15:50;7.30;99.90
66013;DHT22;52783;50.502;8.190;2024-02-21T03:18:16;7.30;99.90
66013;DHT22;52783;50.502;8.190;2024-02-21T03:20:42;7.30;99.90
66013;DHT22;52783;50.502;8.190;2024-02-21T03:23:07;7.30;99.90
66013;DHT22;52783;50.502;8.190;2024-02-21T03:25:32;7.20;99.90
66013;DHT22;52783;50.502;8.190;2024-02-21T03:27:58;7.20;99.90
66013;DHT22;52783;50.502;8.190;2024-02-21T03:30:23;7.30;99.90
66013;DHT22;52783;50.502;8.190;2024-02-21T03:32:49;7.30;99.90
66013;DHT22;52783;50.502;8.190;2024-02-21T03:35:14;7.30;99.90
66013;DHT22;52783;50.502;8.190;2024-02-21T03:37:40;7.30;99.90
66013;DHT22;52783;50.502;8.190;2024-02-21T03:40:10;7.30;99.90
66013;DHT22;52783;50.502;8.190;2024-02-21T03:42:35;7.20;99.90
66013;DHT22;52783;50.502;8.190;2024-02-21T03:45:01;7.30;99.90
66013;DHT22;52783;50.502;8.190;2024-02-21T03:47:26;7.30;99.90
66013;DHT22;52783;50.502;8.190;2024-02-21T03:49:52;7.30;99.90
66013;DHT22;52783;50.502;8.190;2024-02-21T03:52:17;7.30;99.90
66013;DHT22;52783;50.502;8.190;2024-02-21T03:54:43;7.30;99.90
66013;DHT22;52783;50.502;8.190;2024-02-21T03:57:08;7.30;99.90
66013;DHT22;52783;50.502;8.190;2024-02-21T03:59:34;7.20;99.90
66013;DHT22;52783;50.502;8.190;2024-02-21T04:01:59;7.20;99.90
66013;DHT22;52783;50.502;8.190;2024-02-21T04:04:25;7.20;99.90
66013;DHT22;52783;50.502;8.190;2024-02-21T04:06:51;7.30;99.90
66013;DHT22;52783;50.502;8.190;2024-02-21T04:09:17;7.30;99.90
66013;DHT22;52783;50.502;8.190;2024-02-21T04:11:43;7.30;99.90
66013;DHT22;52783;50.502;8.190;2024-02-21T04:14:09;7.30;99.90
66013;DHT22;52783;50.502;8.190;2024-02-21T04:16:36;7.30;99.90
66013;DHT22;52783;50.502;8.190;2024-02-21T04:19:02;7.30;99.90
66013;DHT22;52783;50.502;8.190;2024-02-21T04:21:27;7.30;99.90
66013;DHT22;52783;50.502;8.190;2024-02-21T04:23:53;7.30;99.90
66013;DHT22;52783;50.502;8.190;2024-02-21T04:26:18;7.30;99.90
66013;DHT22;52783;50.502;8.190;2024-02-21T04:28:45;7.30;99.90
66013;DHT22;52783;50.502;8.190;2024-02-21T04:31:10;7.30;99.90
66013;DHT22;52783;50.502;8.190;2024-02-21T04:33:36;7.30;99.90
66013;DHT22;52783;50.502;8.190;2024-02-21T04:36:01;7.30;99.90
66013;DHT22;52783;50.502;8.190;2024-02-21T04:38:27;7.30;99.90
66013;DHT22;52783;50.502;8.190;2024-02-21T04:40:54;7.30;99.90
66013;DHT22;52783;50.502;8.190;2024-02-21T04:43:20;7.30;99.90
66013;DHT22;52783;50.502;8.190;2024-02-21T04:45:45;7.30;99.90
66013;DHT22;52783;50.502;8.190;2024-02-21T04:48:11;7.20;99.90
66013;DHT22;52783;50.502;8.190;2024-02-21T04:50:36;7.30;99.90
66013;DHT22;52783;50.502;8.190;2024-02-21T04:53:02;7.30;99.90
66013;DHT22;52783;50.502;8.190;2024-02-21T04:55:27;7.30;99.90
66013;DHT22;52783;50.502;8.190;2024-02-21T04:57:53;7.30;99.90
66013;DHT22;52783;50.502;8.190;2024-02-21T05:00:19;7.30;99.90
66013;DHT22;52783;50.502;8.190;2024-02-21T05:02:45;7.40;99.90
66013;DHT22;52783;50.502;8.190;2024-02-21T05:05:10;7.30;99.90
66013;DHT22;52783;50.502;8.190;2024-02-21T05:07:36;7.40;99.90
66013;DHT22;52783;50.502;8.190;2024-02-21T05:10:01;7.30;99.90
66013;DHT22;52783;50.502;8.190;2024-02-21T05:12:27;7.40;99.90
66013;DHT22;52783;50.502;8.190;2024-02-21T05:14:52;7.40;99.90
66013;DHT22;52783;50.502;8.190;2024-02-21T05:17:18;7.40;99.90
66013;DHT22;52783;50.502;8.190;2024-02-21T05:19:43;7.40;99.90
66013;DHT22;52783;50.502;8.190;2024-02-21T05:22:09;7.50;99.90
66013;DHT22;52783;50.502;8.190;2024-02-21T05:24:34;7.50;99.90
66013;DHT22;52783;50.502;8.190;2024-02-21T05:27:00;7.40;99.90
66013;DHT22;52783;50.502;8.190;2024-02-21T05:29:25;7.50;99.90
66013;DHT22;52783;50.502;8.190;2024-02-21T05:34:17;7.40;99.90
66013;DHT22;52783;50.502;8.190;2024-02-21T05:36:42;7.30;99.90
66013;DHT22;52783;50.502;8.190;2024-02-21T05:39:08;7.30;99.90
66013;DHT22;52783;50.502;8.190;2024-02-21T05:41:33;7.30;99.90
66013;DHT22;52783;50.502;8.190;2024-02-21T05:43:59;7.30;99.90
66013;DHT22;52783;50.502;8.190;2024-02-21T05:46:24;7.40;99.90
66013;DHT22;52783;50.502;8.190;2024-02-21T05:48:50;7.40;99.90
66013;DHT22;52783;50.502;8.190;2024-02-21T05:51:15;7.40;99.90
66013;DHT22;52783;50.502;8.190;2024-02-21T05:53:41;7.40;99.90
66013;DHT22;52783;50.502;8.190;2024-02-21T05:56:13;7.40;99.90
66013;DHT22;52783;50.502;8.190;2024-02-21T05:58:38;7.40;99.90
66013;DHT22;52783;50.502;8.190;2024-02-21T06:01:04;7.40;99.90
66013;DHT22;52783;50.502;8.190;2024-02-21T06:03:32;7.40;99.90
66013;DHT22;52783;50.502;8.190;2024-02-21T06:05:58;7.40;99.90
66013;DHT22;52783;50.502;8.190;2024-02-21T06:08:24;7.40;99.90
66013;DHT22;52783;50.502;8.190;2024-02-21T06:10:50;7.40;99.90
66013;DHT22;52783;50.502;8.190;2024-02-21T06:13:28;7.40;99.90
66013;DHT22;52783;50.502;8.190;2024-02-21T06:15:54;7.40;99.90
66013;DHT22;52783;50.502;8.190;2024-02-21T06:18:20;7.40;99.90
66013;DHT22;52783;50.502;8.190;2024-02-21T06:20:46;7.40;99.90
66013;DHT22;52783;50.502;8.190;2024-02-21T06:23:12;7.50;99.90
66013;DHT22;52783;50.502;8.190;2024-02-21T06:25:38;7.50;99.90
66013;DHT22;52783;50.502;8.190;2024-02-21T06:28:05;7.40;99.90
66013;DHT22;52783;50.502;8.190;2024-02-21T06:30:31;7.40;99.90
66013;DHT22;52783;50.502;8.190;2024-02-21T06:32:56;7.40;99.90
66013;DHT22;52783;50.502;8.190;2024-02-21T06:35:22;7.40;99.90
66013;DHT22;52783;50.502;8.190;2024-02-21T06:37:50;7.40;99.90
66013;DHT22;52783;50.502;8.190;2024-02-21T06:40:17;7.40;99.90
66013;DHT22;52783;50.502;8.190;2024-02-21T06:42:43;7.40;99.90
66013;DHT22;52783;50.502;8.190;2024-02-21T06:45:08;7.40;99.90
66013;DHT22;52783;50.502;8.190;2024-02-21T06:47:34;7.40;99.90
66013;DHT22;52783;50.502;8.190;2024-02-21T06:50:00;7.40;99.90
66013;DHT22;52783;50.502;8.190;2024-02-21T06:52:25;7.40;99.90
66013;DHT22;52783;50.502;8.190;2024-02-21T06:54:52;7.40;99.90
66013;DHT22;52783;50.502;8.190;2024-02-21T06:57:17;7.50;99.90
66013;DHT22;52783;50.502;8.190;2024-02-21T06:59:43;7.50;99.90
66013;DHT22;52783;50.502;8.190;2024-02-21T07:02:08;7.50;99.90
66013;DHT22;52783;50.502;8.190;2024-02-21T07:04:34;7.50;99.90
66013;DHT22;52783;50.502;8.190;2024-02-21T07:07:00;7.60;99.90
66013;DHT22;52783;50.502;8.190;2024-02-21T07:09:26;7.40;99.90
66013;DHT22;52783;50.502;8.190;2024-02-21T07:11:51;7.50;99.90
66013;DHT22;52783;50.502;8.190;2024-02-21T07:14:18;7.50;99.90
66013;DHT22;52783;50.502;8.190;2024-02-21T07:16:44;7.50;99.90
66013;DHT22;52783;50.502;8.190;2024-02-21T07:19:09;7.60;99.90
66013;DHT22;52783;50.502;8.190;2024-02-21T07:21:35;7.50;99.90
66013;DHT22;52783;50.502;8.190;2024-02-21T07:24:03;7.60;99.90
66013;DHT22;52783;50.502;8.190;2024-02-21T07:26:31;7.60;99.90
66013;DHT22;52783;50.502;8.190;2024-02-21T07:28:56;7.60;99.90
66013;DHT22;52783;50.502;8.190;2024-02-21T07:31:22;7.60;99.90
66013;DHT22;52783;50.502;8.190;2024-02-21T07:33:47;7.60;99.90
66013;DHT22;52783;50.502;8.190;2024-02-21T07:36:15;7.50;99.90
66013;DHT22;52783;50.502;8.190;2024-02-21T07:38:40;7.50;99.90
66013;DHT22;52783;50.502;8.190;2024-02-21T07:41:07;7.50;99.90
66013;DHT22;52783;50.502;8.190;2024-02-21T07:43:32;7.50;99.90
66013;DHT22;52783;50.502;8.190;2024-02-21T07:45:58;7.50;99.90
66013;DHT22;52783;50.502;8.190;2024-02-21T07:48:23;7.50;99.90
66013;DHT22;52783;50.502;8.190;2024-02-21T07:50:50;7.50;99.90
66013;DHT22;52783;50.502;8.190;2024-02-21T07:53:16;7.50;99.90
66013;DHT22;52783;50.502;8.190;2024-02-21T07:55:41;7.60;99.90
66013;DHT22;52783;50.502;8.190;2024-02-21T07:58:07;7.60;99.90
66013;DHT22;52783;50.502;8.190;2024-02-21T08:00:33;7.60;99.90
66013;DHT22;52783;50.502;8.190;2024-02-21T08:02:58;7.70;99.90
66013;DHT22;52783;50.502;8.190;2024-02-21T08:05:24;7.70;99.90
66013;DHT22;52783;50.502;8.190;2024-02-21T08:07:50;7.70;99.90
66013;DHT22;52783;50.502;8.190;2024-02-21T08:10:15;7.80;99.90
66013;DHT22;52783;50.502;8.190;2024-02-21T08:12:41;7.80;99.90
66013;DHT22;52783;50.502;8.190;2024-02-21T08:15:07;7.80;99.90
66013;DHT22;52783;50.502;8.190;2024-02-21T08:17:37;7.80;99.90
66013;DHT22;52783;50.502;8.190;2024-02-21T08:20:04;7.80;99.90
66013;DHT22;52783;50.502;8.190;2024-02-21T08:22:30;8.00;99.90
66013;DHT22;52783;50.502;8.190;2024-02-21T08:24:55;8.00;99.90
66013;DHT22;52783;50.502;8.190;2024-02-21T08:27:21;8.10;99.90
66013;DHT22;52783;50.502;8.190;2024-02-21T08:29:46;8.10;99.90
66013;DHT22;52783;50.502;8.190;2024-02-21T08:32:12;8.10;99.90
66013;DHT22;52783;50.502;8.190;2024-02-21T08:34:38;8.30;99.90
66013;DHT22;52783;50.502;8.190;2024-02-21T08:37:04;8.40;99.90
66013;DHT22;52783;50.502;8.190;2024-02-21T08:39:29;8.30;99.90
66013;DHT22;52783;50.502;8.190;2024-02-21T08:41:56;8.40;99.90
66013;DHT22;52783;50.502;8.190;2024-02-21T08:44:23;8.40;99.90
66013;DHT22;52783;50.502;8.190;2024-02-21T08:46:51;8.40;99.90
66013;DHT22;52783;50.502;8.190;2024-02-21T08:49:16;8.40;99.90
66013;DHT22;52783;50.502;8.190;2024-02-21T08:51:42;8.40;99.90
66013;DHT22;52783;50.502;8.190;2024-02-21T08:54:08;8.50;99.90
66013;DHT22;52783;50.502;8.190;2024-02-21T08:56:33;8.70;99.90
66013;DHT22;52783;50.502;8.190;2024-02-21T08:59:00;8.70;99.90
66013;DHT22;52783;50.502;8.190;2024-02-21T09:01:26;8.60;99.90
66013;DHT22;52783;50.502;8.190;2024-02-21T09:03:52;8.50;99.90
66013;DHT22;52783;50.502;8.190;2024-02-21T09:06:19;8.60;99.90
66013;DHT22;52783;50.502;8.190;2024-02-21T09:08:45;8.60;99.90
66013;DHT22;52783;50.502;8.190;2024-02-21T09:11:11;8.80;99.90
66013;DHT22;52783;50.502;8.190;2024-02-21T09:13:37;8.70;99.90
66013;DHT22;52783;50.502;8.190;2024-02-21T09:16:02;8.60;99.90
66013;DHT22;52783;50.502;8.190;2024-02-21T09:18:28;8.70;99.90
66013;DHT22;52783;50.502;8.190;2024-02-21T09:20:54;8.80;99.90
66013;DHT22;52783;50.502;8.190;2024-02-21T09:23:20;8.70;99.90
66013;DHT22;52783;50.502;8.190;2024-02-21T09:25:45;8.80;99.90
66013;DHT22;52783;50.502;8.190;2024-02-21T09:28:11;8.90;99.90
66013;DHT22;52783;50.502;8.190;2024-02-21T09:30:38;9.00;99.90
66013;DHT22;52783;50.502;8.190;2024-02-21T09:33:04;9.10;99.90
66013;DHT22;52783;50.502;8.190;2024-02-21T09:35:30;9.10;99.90
66013;DHT22;52783;50.502;8.190;2024-02-21T09:37:56;9.20;99.90
66013;DHT22;52783;50.502;8.190;2024-02-21T09:40:21;9.20;99.90
66013;DHT22;52783;50.502;8.190;2024-02-21T09:42:48;9.10;99.90
66013;DHT22;52783;50.502;8.190;2024-02-21T09:45:21;9.10;99.90
66013;DHT22;52783;50.502;8.190;2024-02-21T09:50:34;9.00;99.90
66013;DHT22;52783;50.502;8.190;2024-02-21T09:53:02;9.00;99.90
66013;DHT22;52783;50.502;8.190;2024-02-21T09:55:29;9.00;99.90
66013;DHT22;52783;50.502;8.190;2024-02-21T09:57:58;9.00;99.90
66013;DHT22;52783;50.502;8.190;2024-02-21T10:00:24;9.10;99.90
66013;DHT22;52783;50.502;8.190;2024-02-21T10:02:50;9.00;99.90
66013;DHT22;52783;50.502;8.190;2024-02-21T10:05:16;9.30;99.90
66013;DHT22;52783;50.502;8.190;2024-02-21T10:07:43;9.40;99.90
66013;DHT22;52783;50.502;8.190;2024-02-21T10:10:09;9.30;99.90
66013;DHT22;52783;50.502;8.190;2024-02-21T10:12:35;9.30;99.90
66013;DHT22;52783;50.502;8.190;2024-02-21T10:15:04;9.40;99.90
66013;DHT22;52783;50.502;8.190;2024-02-21T10:17:31;9.50;99.90
66013;DHT22;52783;50.502;8.190;2024-02-21T10:20:07;9.60;99.90
66013;DHT22;52783;50.502;8.190;2024-02-21T10:22:33;9.50;99.90
66013;DHT22;52783;50.502;8.190;2024-02-21T10:25:11;9.60;99.90
66013;DHT22;52783;50.502;8.190;2024-02-21T10:27:40;9.40;99.90
66013;DHT22;52783;50.502;8.190;2024-02-21T10:30:07;9.50;99.90
66013;DHT22;52783;50.502;8.190;2024-02-21T10:32:33;9.40;99.90
66013;DHT22;52783;50.502;8.190;2024-02-21T10:35:04;9.40;99.90
66013;DHT22;52783;50.502;8.190;2024-02-21T10:37:30;9.50;99.90
66013;DHT22;52783;50.502;8.190;2024-02-21T10:39:57;9.80;99.90
66013;DHT22;52783;50.502;8.190;2024-02-21T10:42:26;9.70;99.90
66013;DHT22;52783;50.502;8.190;2024-02-21T10:44:59;9.80;99.90
66013;DHT22;52783;50.502;8.190;2024-02-21T10:47:25;9.90;99.90
66013;DHT22;52783;50.502;8.190;2024-02-21T10:50:02;9.90;99.90
66013;DHT22;52783;50.502;8.190;2024-02-21T10:55:35;9.90;99.90
66013;DHT22;52783;50.502;8.190;2024-02-21T10:58:02;9.90;99.90
66013;DHT22;52783;50.502;8.190;2024-02-21T11:00:29;10.00;99.90
66013;DHT22;52783;50.502;8.190;2024-02-21T11:02:57;10.10;99.90
66013;DHT22;52783;50.502;8.190;2024-02-21T11:05:24;10.10;99.90
66013;DHT22;52783;50.502;8.190;2024-02-21T11:07:50;10.20;99.90
66013;DHT22;52783;50.502;8.190;2024-02-21T11:10:26;10.20;99.90
66013;DHT22;52783;50.502;8.190;2024-02-21T11:13:11;10.20;99.90
66013;DHT22;52783;50.502;8.190;2024-02-21T11:15:36;10.10;99.90
66013;DHT22;52783;50.502;8.190;2024-02-21T11:18:02;10.20;99.90
66013;DHT22;52783;50.502;8.190;2024-02-21T11:20:38;10.10;99.90
66013;DHT22;52783;50.502;8.190;2024-02-21T11:23:04;10.40;99.90
66013;DHT22;52783;50.502;8.190;2024-02-21T11:25:30;10.40;99.90
66013;DHT22;52783;50.502;8.190;2024-02-21T11:28:04;10.50;99.90
66013;DHT22;52783;50.502;8.190;2024-02-21T11:30:32;10.30;99.90
66013;DHT22;52783;50.502;8.190;2024-02-21T11:33:05;10.30;99.90
66013;DHT22;52783;50.502;8.190;2024-02-21T11:35:35;10.40;99.90
66013;DHT22;52783;50.502;8.190;2024-02-21T11:38:13;10.40;99.90
66013;DHT22;52783;50.502;8.190;2024-02-21T11:40:45;10.40;99.90
66013;DHT22;52783;50.502;8.190;2024-02-21T11:43:10;10.40;99.90
66013;DHT22;52783;50.502;8.190;2024-02-21T11:45:36;10.40;99.90
66013;DHT22;52783;50.502;8.190;2024-02-21T11:48:02;10.40;99.90
66013;DHT22;52783;50.502;8.190;2024-02-21T11:50:29;10.50;99.90
66013;DHT22;52783;50.502;8.190;2024-02-21T11:52:56;10.50;99.90
66013;DHT22;52783;50.502;8.190;2024-02-21T11:55:22;10.30;99.90
66013;DHT22;52783;50.502;8.190;2024-02-21T11:57:48;10.40;99.90
66013;DHT22;52783;50.502;8.190;2024-02-21T12:00:15;10.40;99.90
66013;DHT22;52783;50.502;8.190;2024-02-21T12:02:41;10.40;99.90
66013;DHT22;52783;50.502;8.190;2024-02-21T12:05:07;10.40;99.90
66013;DHT22;52783;50.502;8.190;2024-02-21T12:07:33;10.40;99.90
66013;DHT22;52783;50.502;8.190;2024-02-21T12:10:00;10.60;99.90
66013;DHT22;52783;50.502;8.190;2024-02-21T12:12:26;10.60;99.90
66013;DHT22;52783;50.502;8.190;2024-02-21T12:14:56;10.40;99.90
66013;DHT22;52783;50.502;8.190;2024-02-21T12:17:23;10.60;99.90
66013;DHT22;52783;50.502;8.190;2024-02-21T12:19:50;10.80;99.90
66013;DHT22;52783;50.502;8.190;2024-02-21T12:22:18;10.80;99.90
66013;DHT22;52783;50.502;8.190;2024-02-21T12:24:44;10.90;99.90
66013;DHT22;52783;50.502;8.190;2024-02-21T12:27:13;10.80;99.90
66013;DHT22;52783;50.502;8.190;2024-02-21T12:29:39;11.00;99.90
66013;DHT22;52783;50.502;8.190;2024-02-21T12:32:05;11.00;99.90
66013;DHT22;52783;50.502;8.190;2024-02-21T12:34:30;10.90;99.90
66013;DHT22;52783;50.502;8.190;2024-02-21T12:36:58;10.90;99.90
66013;DHT22;52783;50.502;8.190;2024-02-21T12:39:24;11.00;99.90
66013;DHT22;52783;50.502;8.190;2024-02-21T12:41:49;10.80;99.90
66013;DHT22;52783;50.502;8.190;2024-02-21T12:44:15;10.80;99.90
66013;DHT22;52783;50.502;8.190;2024-02-21T12:46:41;10.90;99.90
66013;DHT22;52783;50.502;8.190;2024-02-21T12:49:07;10.80;99.90
66013;DHT22;52783;50.502;8.190;2024-02-21T12:51:36;10.80;99.90
66013;DHT22;52783;50.502;8.190;2024-02-21T12:54:03;10.80;99.90
66013;DHT22;52783;50.502;8.190;2024-02-21T12:56:29;10.70;99.90
66013;DHT22;52783;50.502;8.190;2024-02-21T12:58:56;10.90;99.90
66013;DHT22;52783;50.502;8.190;2024-02-21T13:01:22;10.90;99.90
66013;DHT22;52783;50.502;8.190;2024-02-21T13:03:47;10.80;99.90
66013;DHT22;52783;50.502;8.190;2024-02-21T13:06:13;10.70;99.90
66013;DHT22;52783;50.502;8.190;2024-02-21T13:08:39;10.70;99.90
66013;DHT22;52783;50.502;8.190;2024-02-21T13:11:05;10.70;99.90
66013;DHT22;52783;50.502;8.190;2024-02-21T13:13:31;10.70;99.90
66013;DHT22;52783;50.502;8.190;2024-02-21T13:16:00;10.80;99.90
66013;DHT22;52783;50.502;8.190;2024-02-21T13:18:25;10.90;99.90
66013;DHT22;52783;50.502;8.190;2024-02-21T13:20:51;10.80;99.90
66013;DHT22;52783;50.502;8.190;2024-02-21T13:23:17;10.90;99.90
66013;DHT22;52783;50.502;8.190;2024-02-21T13:25:43;10.90;99.90
66013;DHT22;52783;50.502;8.190;2024-02-21T13:28:10;11.10;99.90
66013;DHT22;52783;50.502;8.190;2024-02-21T13:30:36;11.10;99.90
66013;DHT22;52783;50.502;8.190;2024-02-21T13:33:02;11.30;99.90
66013;DHT22;52783;50.502;8.190;2024-02-21T13:35:28;11.30;99.90
66013;DHT22;52783;50.502;8.190;2024-02-21T13:37:54;11.60;99.90
66013;DHT22;52783;50.502;8.190;2024-02-21T13:40:19;11.50;99.90
66013;DHT22;52783;50.502;8.190;2024-02-21T13:42:45;11.50;99.90
66013;DHT22;52783;50.502;8.190;2024-02-21T13:45:10;11.60;99.90
66013;DHT22;52783;50.502;8.190;2024-02-21T13:47:36;11.70;99.90
66013;DHT22;52783;50.502;8.190;2024-02-21T13:50:02;11.70;99.90
66013;DHT22;52783;50.502;8.190;2024-02-21T13:52:30;11.90;99.90
66013;DHT22;52783;50.502;8.190;2024-02-21T13:54:56;11.80;99.90
66013;DHT22;52783;50.502;8.190;2024-02-21T13:57:21;11.60;99.90
66013;DHT22;52783;50.502;8.190;2024-02-21T13:59:47;11.50;99.90
66013;DHT22;52783;50.502;8.190;2024-02-21T14:02:12;11.60;99.90
66013;DHT22;52783;50.502;8.190;2024-02-21T14:04:38;11.50;99.90
66013;DHT22;52783;50.502;8.190;2024-02-21T14:07:04;11.30;99.90
66013;DHT22;52783;50.502;8.190;2024-02-21T14:09:29;11.30;99.90
66013;DHT22;52783;50.502;8.190;2024-02-21T14:11:55;11.20;99.90
66013;DHT22;52783;50.502;8.190;2024-02-21T14:14:21;11.20;99.90
66013;DHT22;52783;50.502;8.190;2024-02-21T14:16:47;11.20;99.90
66013;DHT22;52783;50.502;8.190;2024-02-21T14:19:13;11.30;99.90
66013;DHT22;52783;50.502;8.190;2024-02-21T14:21:39;10.90;99.90
66013;DHT22;52783;50.502;8.190;2024-02-21T14:24:05;11.00;99.90
66013;DHT22;52783;50.502;8.190;2024-02-21T14:26:31;11.00;99.90
66013;DHT22;52783;50.502;8.190;2024-02-21T14:28:57;10.90;99.90
66013;DHT22;52783;50.502;8.190;2024-02-21T14:31:23;11.00;99.90
66013;DHT22;52783;50.502;8.190;2024-02-21T14:33:48;10.80;99.90
66013;DHT22;52783;50.502;8.190;2024-02-21T14:36:14;10.70;99.90
66013;DHT22;52783;50.502;8.190;2024-02-21T14:38:41;10.70;99.90
66013;DHT22;52783;50.502;8.190;2024-02-21T14:41:07;10.40;99.90
66013;DHT22;52783;50.502;8.190;2024-02-21T14:43:32;10.40;99.90
66013;DHT22;52783;50.502;8.190;2024-02-21T14:45:59;10.60;99.90
66013;DHT22;52783;50.502;8.190;2024-02-21T14:48:25;10.60;99.90
66013;DHT22;52783;50.502;8.190;2024-02-21T14:50:51;10.60;99.90
66013;DHT22;52783;50.502;8.190;2024-02-21T14:53:17;10.70;99.90
66013;DHT22;52783;50.502;8.190;2024-02-21T14:55:43;10.60;99.90
66013;DHT22;52783;50.502;8.190;2024-02-21T14:58:09;10.20;99.90
66013;DHT22;52783;50.502;8.190;2024-02-21T15:00:34;10.40;99.90
66013;DHT22;52783;50.502;8.190;2024-02-21T15:03:00;10.50;99.90
66013;DHT22;52783;50.502;8.190;2024-02-21T15:05:26;10.50;99.90
66013;DHT22;52783;50.502;8.190;2024-02-21T15:07:55;10.40;99.90
66013;DHT22;52783;50.502;8.190;2024-02-21T15:10:20;10.30;99.90
66013;DHT22;52783;50.502;8.190;2024-02-21T15:12:46;10.30;99.90
66013;DHT22;52783;50.502;8.190;2024-02-21T15:15:13;10.30;99.90
66013;DHT22;52783;50.502;8.190;2024-02-21T15:17:38;10.30;99.90
66013;DHT22;52783;50.502;8.190;2024-02-21T15:20:04;10.40;99.90
66013;DHT22;52783;50.502;8.190;2024-02-21T15:22:33;10.40;99.90
66013;DHT22;52783;50.502;8.190;2024-02-21T15:24:59;10.30;99.90
66013;DHT22;52783;50.502;8.190;2024-02-21T15:27:25;10.30;99.90
66013;DHT22;52783;50.502;8.190;2024-02-21T15:29:53;10.30;99.90
66013;DHT22;52783;50.502;8.190;2024-02-21T15:32:18;10.30;99.90
66013;DHT22;52783;50.502;8.190;2024-02-21T15:34:45;10.30;99.90
66013;DHT22;52783;50.502;8.190;2024-02-21T15:37:11;10.40;99.90
66013;DHT22;52783;50.502;8.190;2024-02-21T15:39:37;10.40;99.90
66013;DHT22;52783;50.502;8.190;2024-02-21T15:42:02;10.40;99.90
66013;DHT22;52783;50.502;8.190;2024-02-21T15:44:28;10.40;99.90